sensor_id;sensor_type;location;lat;lon;timestamp;temperature;humidity
35111;DHT22;21290;50.158;8.658;2022-08-30T00:00:39;16.40;83.80
35111;DHT22;21290;50.158;8.658;2022-08-30T00:03:24;16.40;84.30
35111;DHT22;21290;50.158;8.658;2022-08-30T00:05:53;16.40;85.10
35111;DHT22;21290;50.158;8.658;2022-08-30T00:08:22;16.30;85.20
35111;DHT22;21290;50.158;8.658;2022-08-30T00:10:52;16.30;85.30
35111;DHT22;21290;50.158;8.658;2022-08-30T00:13:19;16.20;85.60
35111;DHT22;21290;50.158;8.658;2022-08-30T00:15:47;16.20;86.10
35111;DHT22;21290;50.158;8.658;2022-08-30T00:18:15;16.20;87.00
35111;DHT22;21290;50.158;8.658;2022-08-30T00:20:45;16.10;87.40
35111;DHT22;21290;50.158;8.658;2022-08-30T00:23:13;16.10;87.70
35111;DHT22;21290;50.158;8.658;2022-08-30T00:25:41;16.10;87.40
35111;DHT22;21290;50.158;8.658;2022-08-30T00:28:07;16.00;88.60
35111;DHT22;21290;50.158;8.658;2022-08-30T00:30:36;16.00;89.70
35111;DHT22;21290;50.158;8.658;2022-08-30T00:33:05;15.90;89.70
35111;DHT22;21290;50.158;8.658;2022-08-30T00:35:31;15.90;90.20
35111;DHT22;21290;50.158;8.658;2022-08-30T00:38:02;15.90;90.30
35111;DHT22;21290;50.158;8.658;2022-08-30T00:40:30;15.90;90.50
35111;DHT22;21290;50.158;8.658;2022-08-30T00:42:59;15.90;90.80
35111;DHT22;21290;50.158;8.658;2022-08-30T00:45:35;15.80;91.00
35111;DHT22;21290;50.158;8.658;2022-08-30T00:48:05;15.80;91.20
35111;DHT22;21290;50.158;8.658;2022-08-30T00:50:37;15.70;91.60
35111;DHT22;21290;50.158;8.658;2022-08-30T00:53:10;15.70;92.00
35111;DHT22;21290;50.158;8.658;2022-08-30T00:55:45;15.70;92.10
35111;DHT22;21290;50.158;8.658;2022-08-30T00:58:20;15.60;92.50
35111;DHT22;21290;50.158;8.658;2022-08-30T01:00:53;15.60;92.80
35111;DHT22;21290;50.158;8.658;2022-08-30T01:03:25;15.60;93.00
35111;DHT22;21290;50.158;8.658;2022-08-30T01:05:54;15.60;93.50
35111;DHT22;21290;50.158;8.658;2022-08-30T01:08:26;15.50;93.50
35111;DHT22;21290;50.158;8.658;2022-08-30T01:10:56;15.50;93.80
35111;DHT22;21290;50.158;8.658;2022-08-30T01:13:26;15.50;94.30
35111;DHT22;21290;50.158;8.658;2022-08-30T01:15:54;15.40;94.60
35111;DHT22;21290;50.158;8.658;2022-08-30T01:18:22;15.40;94.90
35111;DHT22;21290;50.158;8.658;2022-08-30T01:20:58;15.40;95.30
35111;DHT22;21290;50.158;8.658;2022-08-30T01:23:30;15.40;95.80
35111;DHT22;21290;50.158;8.658;2022-08-30T01:25:57;15.30;96.20
35111;DHT22;21290;50.158;8.658;2022-08-30T01:28:28;15.30;96.60
35111;DHT22;21290;50.158;8.658;2022-08-30T01:30:55;15.30;96.70
35111;DHT22;21290;50.158;8.658;2022-08-30T01:33:24;15.30;97.20
35111;DHT22;21290;50.158;8.658;2022-08-30T01:35:52;15.30;97.60
35111;DHT22;21290;50.158;8.658;2022-08-30T01:38:24;15.20;98.00
35111;DHT22;21290;50.158;8.658;2022-08-30T01:40:58;15.20;98.40
35111;DHT22;21290;50.158;8.658;2022-08-30T01:43:29;15.20;98.80
35111;DHT22;21290;50.158;8.658;2022-08-30T01:45:56;15.20;99.10
35111;DHT22;21290;50.158;8.658;2022-08-30T01:48:23;15.20;99.40
35111;DHT22;21290;50.158;8.658;2022-08-30T01:50:59;15.20;99.50
35111;DHT22;21290;50.158;8.658;2022-08-30T01:53:26;15.10;99.80
35111;DHT22;21290;50.158;8.658;2022-08-30T01:55:52;15.10;99.90
35111;DHT22;21290;50.158;8.658;2022-08-30T01:58:21;15.10;99.90
35111;DHT22;21290;50.158;8.658;2022-08-30T02:00:51;15.10;99.90
35111;DHT22;21290;50.158;8.658;2022-08-30T02:03:18;15.00;99.90
35111;DHT22;21290;50.158;8.658;2022-08-30T02:05:45;15.10;99.90
35111;DHT22;21290;50.158;8.658;2022-08-30T02:08:18;15.10;99.90
35111;DHT22;21290;50.158;8.658;2022-08-30T02:10:45;15.00;99.90
35111;DHT22;21290;50.158;8.658;2022-08-30T02:13:13;15.00;99.90
35111;DHT22;21290;50.158;8.658;2022-08-30T02:15:43;15.00;99.90
35111;DHT22;21290;50.158;8.658;2022-08-30T02:18:11;15.00;99.90
35111;DHT22;21290;50.158;8.658;2022-08-30T02:20:38;14.90;99.90
35111;DHT22;21290;50.158;8.658;2022-08-30T02:23:09;14.90;99.90
35111;DHT22;21290;50.158;8.658;2022-08-30T02:25:36;14.90;99.90
35111;DHT22;21290;50.158;8.658;2022-08-30T02:28:06;14.90;99.90
35111;DHT22;21290;50.158;8.658;2022-08-30T02:30:34;14.90;99.90
35111;DHT22;21290;50.158;8.658;2022-08-30T02:33:03;14.90;99.90
35111;DHT22;21290;50.158;8.658;2022-08-30T02:35:30;14.90;99.90
35111;DHT22;21290;50.158;8.658;2022-08-30T02:38:07;14.90;99.90
35111;DHT22;21290;50.158;8.658;2022-08-30T02:40:36;14.90;99.90
35111;DHT22;21290;50.158;8.658;2022-08-30T02:43:07;14.80;99.90
35111;DHT22;21290;50.158;8.658;2022-08-30T02:45:34;14.80;99.90
35111;DHT22;21290;50.158;8.658;2022-08-30T02:48:08;14.80;99.90
35111;DHT22;21290;50.158;8.658;2022-08-30T02:50:39;14.70;99.90
35111;DHT22;21290;50.158;8.658;2022-08-30T02:53:06;14.70;99.90
35111;DHT22;21290;50.158;8.658;2022-08-30T02:55:38;14.70;99.90
35111;DHT22;21290;50.158;8.658;2022-08-30T02:58:05;14.70;99.90
35111;DHT22;21290;50.158;8.658;2022-08-30T03:00:40;14.60;99.90
35111;DHT22;21290;50.158;8.658;2022-08-30T03:03:09;14.60;99.90
35111;DHT22;21290;50.158;8.658;2022-08-30T03:05:36;14.50;99.90
35111;DHT22;21290;50.158;8.658;2022-08-30T03:08:06;14.60;99.90
35111;DHT22;21290;50.158;8.658;2022-08-30T03:10:35;14.50;99.90
35111;DHT22;21290;50.158;8.658;2022-08-30T03:13:07;14.50;99.90
35111;DHT22;21290;50.158;8.658;2022-08-30T03:15:36;14.50;99.90
35111;DHT22;21290;50.158;8.658;2022-08-30T03:18:09;14.40;99.90
35111;DHT22;21290;50.158;8.658;2022-08-30T03:20:36;14.40;99.90
35111;DHT22;21290;50.158;8.658;2022-08-30T03:23:10;14.40;99.90
35111;DHT22;21290;50.158;8.658;2022-08-30T03:25:47;14.30;99.90
35111;DHT22;21290;50.158;8.658;2022-08-30T03:28:15;14.30;99.90
35111;DHT22;21290;50.158;8.658;2022-08-30T03:30:42;14.30;99.90
35111;DHT22;21290;50.158;8.658;2022-08-30T03:33:13;14.30;99.90
35111;DHT22;21290;50.158;8.658;2022-08-30T03:35:40;14.30;99.90
35111;DHT22;21290;50.158;8.658;2022-08-30T03:38:07;14.20;99.90
35111;DHT22;21290;50.158;8.658;2022-08-30T03:40:34;14.20;99.90
35111;DHT22;21290;50.158;8.658;2022-08-30T03:43:02;14.20;99.90
35111;DHT22;21290;50.158;8.658;2022-08-30T03:45:30;14.20;99.90
35111;DHT22;21290;50.158;8.658;2022-08-30T03:48:01;14.20;99.90
35111;DHT22;21290;50.158;8.658;2022-08-30T03:50:30;14.20;99.90
35111;DHT22;21290;50.158;8.658;2022-08-30T03:52:57;14.20;99.90
35111;DHT22;21290;50.158;8.658;2022-08-30T03:55:28;14.20;99.90
35111;DHT22;21290;50.158;8.658;2022-08-30T03:57:56;14.10;99.90
35111;DHT22;21290;50.158;8.658;2022-08-30T04:00:35;14.10;99.90
35111;DHT22;21290;50.158;8.658;2022-08-30T04:03:02;14.10;99.90
35111;DHT22;21290;50.158;8.658;2022-08-30T04:05:34;14.10;99.90
35111;DHT22;21290;50.158;8.658;2022-08-30T04:08:01;14.10;99.90
35111;DHT22;21290;50.158;8.658;2022-08-30T04:10:34;14.10;99.90
35111;DHT22;21290;50.158;8.658;2022-08-30T04:13:01;14.00;99.90
35111;DHT22;21290;50.158;8.658;2022-08-30T04:15:31;14.00;99.90
35111;DHT22;21290;50.158;8.658;2022-08-30T04:18:07;14.00;99.90
35111;DHT22;21290;50.158;8.658;2022-08-30T04:20:35;13.90;99.90
35111;DHT22;21290;50.158;8.658;2022-08-30T04:23:09;13.90;99.90
35111;DHT22;21290;50.158;8.658;2022-08-30T04:25:48;13.90;99.90
35111;DHT22;21290;50.158;8.658;2022-08-30T04:28:14;13.90;99.90
35111;DHT22;21290;50.158;8.658;2022-08-30T04:30:43;13.90;99.90
35111;DHT22;21290;50.158;8.658;2022-08-30T04:33:12;13.90;99.90
35111;DHT22;21290;50.158;8.658;2022-08-30T04:35:45;13.90;99.90
35111;DHT22;21290;50.158;8.658;2022-08-30T04:38:22;13.80;99.90
35111;DHT22;21290;50.158;8.658;2022-08-30T04:40:54;13.90;99.90
35111;DHT22;21290;50.158;8.658;2022-08-30T04:43:25;13.80;99.90
35111;DHT22;21290;50.158;8.658;2022-08-30T04:45:53;13.80;99.90
35111;DHT22;21290;50.158;8.658;2022-08-30T04:48:20;13.90;99.90
35111;DHT22;21290;50.158;8.658;2022-08-30T04:50:51;13.90;99.90
35111;DHT22;21290;50.158;8.658;2022-08-30T04:53:18;13.90;99.90
35111;DHT22;21290;50.158;8.658;2022-08-30T04:55:45;13.90;99.90
35111;DHT22;21290;50.158;8.658;2022-08-30T04:58:14;13.90;99.90
35111;DHT22;21290;50.158;8.658;2022-08-30T05:00:43;13.90;99.90
35111;DHT22;21290;50.158;8.658;2022-08-30T05:03:09;13.90;99.90
35111;DHT22;21290;50.158;8.658;2022-08-30T05:05:45;13.90;99.90
35111;DHT22;21290;50.158;8.658;2022-08-30T05:08:15;14.00;99.90
35111;DHT22;21290;50.158;8.658;2022-08-30T05:10:52;14.00;99.90
35111;DHT22;21290;50.158;8.658;2022-08-30T05:13:19;13.90;99.90
35111;DHT22;21290;50.158;8.658;2022-08-30T05:16:02;14.00;99.90
35111;DHT22;21290;50.158;8.658;2022-08-30T05:18:35;14.00;99.90
35111;DHT22;21290;50.158;8.658;2022-08-30T05:21:09;14.10;99.90
35111;DHT22;21290;50.158;8.658;2022-08-30T05:23:40;14.10;99.90
35111;DHT22;21290;50.158;8.658;2022-08-30T05:26:15;14.10;99.90
35111;DHT22;21290;50.158;8.658;2022-08-30T05:28:43;14.20;99.90
35111;DHT22;21290;50.158;8.658;2022-08-30T05:33:42;14.30;99.90
35111;DHT22;21290;50.158;8.658;2022-08-30T05:36:09;14.40;99.90
35111;DHT22;21290;50.158;8.658;2022-08-30T05:38:39;14.40;99.90
35111;DHT22;21290;50.158;8.658;2022-08-30T05:41:08;14.50;99.90
35111;DHT22;21290;50.158;8.658;2022-08-30T05:43:37;14.70;99.90
35111;DHT22;21290;50.158;8.658;2022-08-30T05:46:06;14.70;99.90
35111;DHT22;21290;50.158;8.658;2022-08-30T05:48:33;14.90;99.90
35111;DHT22;21290;50.158;8.658;2022-08-30T05:51:13;15.10;99.90
35111;DHT22;21290;50.158;8.658;2022-08-30T05:53:40;15.40;99.90
35111;DHT22;21290;50.158;8.658;2022-08-30T05:56:13;15.50;99.90
35111;DHT22;21290;50.158;8.658;2022-08-30T05:58:41;15.80;99.90
35111;DHT22;21290;50.158;8.658;2022-08-30T06:01:21;16.00;99.90
35111;DHT22;21290;50.158;8.658;2022-08-30T06:03:51;16.30;99.90
35111;DHT22;21290;50.158;8.658;2022-08-30T06:06:22;16.60;99.90
35111;DHT22;21290;50.158;8.658;2022-08-30T06:08:51;16.80;99.90
35111;DHT22;21290;50.158;8.658;2022-08-30T06:11:20;17.00;99.90
35111;DHT22;21290;50.158;8.658;2022-08-30T06:13:48;17.20;99.90
35111;DHT22;21290;50.158;8.658;2022-08-30T06:16:21;17.50;99.90
35111;DHT22;21290;50.158;8.658;2022-08-30T06:18:48;17.70;99.90
35111;DHT22;21290;50.158;8.658;2022-08-30T06:21:20;17.90;99.90
35111;DHT22;21290;50.158;8.658;2022-08-30T06:23:47;18.00;99.90
35111;DHT22;21290;50.158;8.658;2022-08-30T06:26:14;18.10;99.90
35111;DHT22;21290;50.158;8.658;2022-08-30T06:28:43;18.30;99.90
35111;DHT22;21290;50.158;8.658;2022-08-30T06:31:12;18.50;99.90
35111;DHT22;21290;50.158;8.658;2022-08-30T06:33:42;18.70;99.90
35111;DHT22;21290;50.158;8.658;2022-08-30T06:36:14;18.80;99.90
35111;DHT22;21290;50.158;8.658;2022-08-30T06:38:41;19.10;99.90
35111;DHT22;21290;50.158;8.658;2022-08-30T06:41:13;19.30;99.90
35111;DHT22;21290;50.158;8.658;2022-08-30T06:43:40;19.50;99.90
35111;DHT22;21290;50.158;8.658;2022-08-30T06:46:18;19.80;99.90
35111;DHT22;21290;50.158;8.658;2022-08-30T06:48:51;20.00;99.90
35111;DHT22;21290;50.158;8.658;2022-08-30T06:51:28;20.40;99.90
35111;DHT22;21290;50.158;8.658;2022-08-30T06:53:57;20.60;99.90
35111;DHT22;21290;50.158;8.658;2022-08-30T06:56:25;20.80;99.90
35111;DHT22;21290;50.158;8.658;2022-08-30T06:58:57;21.00;99.80
35111;DHT22;21290;50.158;8.658;2022-08-30T07:01:26;21.10;99.60
35111;DHT22;21290;50.158;8.658;2022-08-30T07:03:55;21.30;99.30
35111;DHT22;21290;50.158;8.658;2022-08-30T07:06:23;21.50;98.90
35111;DHT22;21290;50.158;8.658;2022-08-30T07:09:01;21.80;98.60
35111;DHT22;21290;50.158;8.658;2022-08-30T07:11:35;22.00;98.00
35111;DHT22;21290;50.158;8.658;2022-08-30T07:14:04;22.20;97.40
35111;DHT22;21290;50.158;8.658;2022-08-30T07:16:31;22.50;97.10
35111;DHT22;21290;50.158;8.658;2022-08-30T07:19:00;22.70;96.70
35111;DHT22;21290;50.158;8.658;2022-08-30T07:21:40;22.80;96.10
35111;DHT22;21290;50.158;8.658;2022-08-30T07:24:13;22.90;95.50
35111;DHT22;21290;50.158;8.658;2022-08-30T07:26:42;23.00;95.30
35111;DHT22;21290;50.158;8.658;2022-08-30T07:29:09;23.10;95.10
35111;DHT22;21290;50.158;8.658;2022-08-30T07:31:38;23.20;95.10
35111;DHT22;21290;50.158;8.658;2022-08-30T07:34:07;23.40;94.70
35111;DHT22;21290;50.158;8.658;2022-08-30T07:36:36;23.60;94.40
35111;DHT22;21290;50.158;8.658;2022-08-30T07:39:06;24.00;93.80
35111;DHT22;21290;50.158;8.658;2022-08-30T07:41:36;24.40;93.20
35111;DHT22;21290;50.158;8.658;2022-08-30T07:44:05;24.80;92.20
35111;DHT22;21290;50.158;8.658;2022-08-30T07:46:50;25.20;91.60
35111;DHT22;21290;50.158;8.658;2022-08-30T07:49:17;25.70;90.60
35111;DHT22;21290;50.158;8.658;2022-08-30T07:51:45;26.10;90.10
35111;DHT22;21290;50.158;8.658;2022-08-30T07:54:12;26.40;88.60
35111;DHT22;21290;50.158;8.658;2022-08-30T07:56:39;26.40;87.60
35111;DHT22;21290;50.158;8.658;2022-08-30T07:59:10;26.50;86.10
35111;DHT22;21290;50.158;8.658;2022-08-30T08:01:40;26.50;85.00
35111;DHT22;21290;50.158;8.658;2022-08-30T08:04:07;26.60;84.10
35111;DHT22;21290;50.158;8.658;2022-08-30T08:06:38;27.00;82.70
35111;DHT22;21290;50.158;8.658;2022-08-30T08:09:07;27.40;81.20
35111;DHT22;21290;50.158;8.658;2022-08-30T08:11:34;28.00;79.20
35111;DHT22;21290;50.158;8.658;2022-08-30T08:14:02;28.60;77.90
35111;DHT22;21290;50.158;8.658;2022-08-30T08:16:31;29.00;75.20
35111;DHT22;21290;50.158;8.658;2022-08-30T08:18:58;29.20;74.40
35111;DHT22;21290;50.158;8.658;2022-08-30T08:21:31;29.20;73.80
35111;DHT22;21290;50.158;8.658;2022-08-30T08:23:57;29.20;72.90
35111;DHT22;21290;50.158;8.658;2022-08-30T08:26:25;29.60;72.80
35111;DHT22;21290;50.158;8.658;2022-08-30T08:28:52;30.20;70.70
35111;DHT22;21290;50.158;8.658;2022-08-30T08:31:25;31.40;69.30
35111;DHT22;21290;50.158;8.658;2022-08-30T08:34:00;33.40;66.00
35111;DHT22;21290;50.158;8.658;2022-08-30T08:36:33;35.30;60.50
35111;DHT22;21290;50.158;8.658;2022-08-30T08:39:04;36.80;57.60
35111;DHT22;21290;50.158;8.658;2022-08-30T08:47:34;37.80;51.20
35111;DHT22;21290;50.158;8.658;2022-08-30T08:50:10;37.80;51.10
35111;DHT22;21290;50.158;8.658;2022-08-30T08:53:03;38.20;50.90
35111;DHT22;21290;50.158;8.658;2022-08-30T08:56:13;38.50;49.80
35111;DHT22;21290;50.158;8.658;2022-08-30T08:58:47;37.70;49.70
35111;DHT22;21290;50.158;8.658;2022-08-30T09:01:20;36.10;50.20
35111;DHT22;21290;50.158;8.658;2022-08-30T09:03:50;35.70;51.50
35111;DHT22;21290;50.158;8.658;2022-08-30T09:07:02;36.40;51.00
35111;DHT22;21290;50.158;8.658;2022-08-30T09:09:36;36.90;50.00
35111;DHT22;21290;50.158;8.658;2022-08-30T09:12:06;37.50;50.10
35111;DHT22;21290;50.158;8.658;2022-08-30T09:14:47;38.10;49.50
35111;DHT22;21290;50.158;8.658;2022-08-30T09:17:21;39.40;49.10
35111;DHT22;21290;50.158;8.658;2022-08-30T09:28:12;41.20;46.10
35111;DHT22;21290;50.158;8.658;2022-08-30T09:31:04;41.70;45.90
35111;DHT22;21290;50.158;8.658;2022-08-30T09:33:37;41.80;45.10
35111;DHT22;21290;50.158;8.658;2022-08-30T09:36:18;42.00;44.90
35111;DHT22;21290;50.158;8.658;2022-08-30T09:39:03;42.40;44.50
35111;DHT22;21290;50.158;8.658;2022-08-30T09:41:39;42.80;43.50
35111;DHT22;21290;50.158;8.658;2022-08-30T09:46:56;42.50;43.40
35111;DHT22;21290;50.158;8.658;2022-08-30T09:49:41;42.20;42.90
35111;DHT22;21290;50.158;8.658;2022-08-30T09:52:34;42.50;43.00
35111;DHT22;21290;50.158;8.658;2022-08-30T09:55:36;43.10;42.90
35111;DHT22;21290;50.158;8.658;2022-08-30T09:58:35;43.90;42.40
35111;DHT22;21290;50.158;8.658;2022-08-30T10:01:10;44.90;41.60
35111;DHT22;21290;50.158;8.658;2022-08-30T10:03:47;45.50;41.20
35111;DHT22;21290;50.158;8.658;2022-08-30T10:14:49;45.50;39.90
35111;DHT22;21290;50.158;8.658;2022-08-30T10:20:21;45.30;39.10
35111;DHT22;21290;50.158;8.658;2022-08-30T10:23:06;45.60;39.40
35111;DHT22;21290;50.158;8.658;2022-08-30T10:25:40;46.40;39.00
35111;DHT22;21290;50.158;8.658;2022-08-30T10:28:13;46.60;38.70
35111;DHT22;21290;50.158;8.658;2022-08-30T10:30:57;46.80;38.60
35111;DHT22;21290;50.158;8.658;2022-08-30T10:33:49;47.00;38.10
35111;DHT22;21290;50.158;8.658;2022-08-30T10:36:25;46.80;37.40
35111;DHT22;21290;50.158;8.658;2022-08-30T10:38:55;46.80;38.10
35111;DHT22;21290;50.158;8.658;2022-08-30T10:44:21;47.00;38.00
35111;DHT22;21290;50.158;8.658;2022-08-30T10:47:10;46.90;37.60
35111;DHT22;21290;50.158;8.658;2022-08-30T10:49:51;46.70;37.40
35111;DHT22;21290;50.158;8.658;2022-08-30T10:55:27;47.10;37.00
35111;DHT22;21290;50.158;8.658;2022-08-30T10:58:01;47.20;37.00
35111;DHT22;21290;50.158;8.658;2022-08-30T11:03:37;47.60;36.90
35111;DHT22;21290;50.158;8.658;2022-08-30T11:13:57;47.30;36.40
35111;DHT22;21290;50.158;8.658;2022-08-30T11:16:48;47.30;36.30
35111;DHT22;21290;50.158;8.658;2022-08-30T11:19:24;46.80;36.20
35111;DHT22;21290;50.158;8.658;2022-08-30T11:22:17;46.40;36.40
35111;DHT22;21290;50.158;8.658;2022-08-30T11:25:00;46.60;36.10
35111;DHT22;21290;50.158;8.658;2022-08-30T11:27:50;46.50;36.40
35111;DHT22;21290;50.158;8.658;2022-08-30T11:35:45;46.40;36.00
35111;DHT22;21290;50.158;8.658;2022-08-30T11:41:12;44.30;36.80
35111;DHT22;21290;50.158;8.658;2022-08-30T11:52:18;44.60;37.00
35111;DHT22;21290;50.158;8.658;2022-08-30T11:57:43;42.10;37.30
35111;DHT22;21290;50.158;8.658;2022-08-30T12:00:34;40.70;38.10
35111;DHT22;21290;50.158;8.658;2022-08-30T12:05:49;38.50;40.30
35111;DHT22;21290;50.158;8.658;2022-08-30T12:16:35;35.80;42.50
35111;DHT22;21290;50.158;8.658;2022-08-30T12:19:27;35.50;41.80
35111;DHT22;21290;50.158;8.658;2022-08-30T12:21:59;35.10;43.00
35111;DHT22;21290;50.158;8.658;2022-08-30T12:24:36;34.90;43.00
35111;DHT22;21290;50.158;8.658;2022-08-30T12:27:30;34.70;43.10
35111;DHT22;21290;50.158;8.658;2022-08-30T12:30:04;34.50;43.50
35111;DHT22;21290;50.158;8.658;2022-08-30T12:32:44;34.40;43.80
35111;DHT22;21290;50.158;8.658;2022-08-30T12:35:24;34.40;44.10
35111;DHT22;21290;50.158;8.658;2022-08-30T12:38:03;34.30;43.90
35111;DHT22;21290;50.158;8.658;2022-08-30T12:40:34;33.90;43.90
35111;DHT22;21290;50.158;8.658;2022-08-30T12:43:27;33.60;44.10
35111;DHT22;21290;50.158;8.658;2022-08-30T12:46:09;33.60;44.50
35111;DHT22;21290;50.158;8.658;2022-08-30T12:48:56;33.60;44.20
35111;DHT22;21290;50.158;8.658;2022-08-30T12:51:50;33.70;44.30
35111;DHT22;21290;50.158;8.658;2022-08-30T12:54:31;33.60;44.00
35111;DHT22;21290;50.158;8.658;2022-08-30T12:57:09;33.30;44.00
35111;DHT22;21290;50.158;8.658;2022-08-30T13:00:02;33.20;44.10
35111;DHT22;21290;50.158;8.658;2022-08-30T13:02:47;33.10;44.10
35111;DHT22;21290;50.158;8.658;2022-08-30T13:08:23;33.10;44.90
35111;DHT22;21290;50.158;8.658;2022-08-30T13:11:27;33.20;45.20
35111;DHT22;21290;50.158;8.658;2022-08-30T13:14:17;33.30;44.90
35111;DHT22;21290;50.158;8.658;2022-08-30T13:16:46;33.40;44.30
35111;DHT22;21290;50.158;8.658;2022-08-30T13:19:25;33.20;44.90
35111;DHT22;21290;50.158;8.658;2022-08-30T13:21:55;33.10;44.80
35111;DHT22;21290;50.158;8.658;2022-08-30T13:24:28;33.10;45.40
35111;DHT22;21290;50.158;8.658;2022-08-30T13:26:57;33.00;45.00
35111;DHT22;21290;50.158;8.658;2022-08-30T13:29:31;33.00;45.00
35111;DHT22;21290;50.158;8.658;2022-08-30T13:31:58;32.90;45.00
35111;DHT22;21290;50.158;8.658;2022-08-30T13:34:26;33.00;45.40
35111;DHT22;21290;50.158;8.658;2022-08-30T13:36:59;33.00;44.20
35111;DHT22;21290;50.158;8.658;2022-08-30T13:39:28;32.60;45.00
35111;DHT22;21290;50.158;8.658;2022-08-30T13:41:55;32.20;43.90
35111;DHT22;21290;50.158;8.658;2022-08-30T13:44:42;32.00;44.60
35111;DHT22;21290;50.158;8.658;2022-08-30T13:47:23;31.60;45.00
35111;DHT22;21290;50.158;8.658;2022-08-30T13:49:58;31.40;45.30
35111;DHT22;21290;50.158;8.658;2022-08-30T13:52:27;31.30;45.40
35111;DHT22;21290;50.158;8.658;2022-08-30T13:54:56;31.30;46.30
35111;DHT22;21290;50.158;8.658;2022-08-30T13:57:26;31.40;45.70
35111;DHT22;21290;50.158;8.658;2022-08-30T14:00:17;31.40;46.20
35111;DHT22;21290;50.158;8.658;2022-08-30T14:02:46;31.30;46.40
35111;DHT22;21290;50.158;8.658;2022-08-30T14:05:26;31.30;47.10
35111;DHT22;21290;50.158;8.658;2022-08-30T14:08:17;31.40;47.50
35111;DHT22;21290;50.158;8.658;2022-08-30T14:11:05;31.50;46.00
35111;DHT22;21290;50.158;8.658;2022-08-30T14:13:31;31.60;46.40
35111;DHT22;21290;50.158;8.658;2022-08-30T14:16:00;31.70;46.70
35111;DHT22;21290;50.158;8.658;2022-08-30T14:18:47;31.80;46.80
35111;DHT22;21290;50.158;8.658;2022-08-30T14:21:14;31.80;45.20
35111;DHT22;21290;50.158;8.658;2022-08-30T14:23:41;31.70;45.50
35111;DHT22;21290;50.158;8.658;2022-08-30T14:26:12;31.60;45.70
35111;DHT22;21290;50.158;8.658;2022-08-30T14:28:42;31.70;45.80
35111;DHT22;21290;50.158;8.658;2022-08-30T14:31:10;31.60;46.20
35111;DHT22;21290;50.158;8.658;2022-08-30T14:33:37;31.60;46.70
35111;DHT22;21290;50.158;8.658;2022-08-30T14:36:04;31.60;45.60
35111;DHT22;21290;50.158;8.658;2022-08-30T14:38:38;31.40;45.60
35111;DHT22;21290;50.158;8.658;2022-08-30T14:41:08;31.20;46.20
35111;DHT22;21290;50.158;8.658;2022-08-30T14:43:36;31.20;46.70
35111;DHT22;21290;50.158;8.658;2022-08-30T14:46:04;31.10;46.50
35111;DHT22;21290;50.158;8.658;2022-08-30T14:48:31;31.20;46.80
35111;DHT22;21290;50.158;8.658;2022-08-30T14:50:57;31.40;47.30
35111;DHT22;21290;50.158;8.658;2022-08-30T14:53:24;31.40;46.90
35111;DHT22;21290;50.158;8.658;2022-08-30T14:55:51;31.50;46.60
35111;DHT22;21290;50.158;8.658;2022-08-30T14:58:17;31.50;46.40
35111;DHT22;21290;50.158;8.658;2022-08-30T15:00:51;31.60;46.40
35111;DHT22;21290;50.158;8.658;2022-08-30T15:03:18;31.60;47.00
35111;DHT22;21290;50.158;8.658;2022-08-30T15:05:49;31.50;46.10
35111;DHT22;21290;50.158;8.658;2022-08-30T15:08:18;31.30;46.50
35111;DHT22;21290;50.158;8.658;2022-08-30T15:10:45;31.30;46.50
35111;DHT22;21290;50.158;8.658;2022-08-30T15:13:12;31.20;47.20
35111;DHT22;21290;50.158;8.658;2022-08-30T15:15:40;31.30;46.90
35111;DHT22;21290;50.158;8.658;2022-08-30T15:18:07;31.20;46.60
35111;DHT22;21290;50.158;8.658;2022-08-30T15:20:34;31.10;46.30
35111;DHT22;21290;50.158;8.658;2022-08-30T15:23:01;31.10;46.20
35111;DHT22;21290;50.158;8.658;2022-08-30T15:25:30;31.10;46.30
35111;DHT22;21290;50.158;8.658;2022-08-30T15:27:57;31.00;46.90
35111;DHT22;21290;50.158;8.658;2022-08-30T15:30:23;31.00;46.60
35111;DHT22;21290;50.158;8.658;2022-08-30T15:32:50;31.00;46.70
35111;DHT22;21290;50.158;8.658;2022-08-30T15:35:17;30.80;46.80
35111;DHT22;21290;50.158;8.658;2022-08-30T15:37:44;30.60;47.20
35111;DHT22;21290;50.158;8.658;2022-08-30T15:40:11;30.40;47.20
35111;DHT22;21290;50.158;8.658;2022-08-30T15:42:38;30.30;47.30
35111;DHT22;21290;50.158;8.658;2022-08-30T15:45:05;30.20;47.60
35111;DHT22;21290;50.158;8.658;2022-08-30T15:47:32;30.10;47.60
35111;DHT22;21290;50.158;8.658;2022-08-30T15:50:02;30.10;48.30
35111;DHT22;21290;50.158;8.658;2022-08-30T15:52:30;30.00;48.50
35111;DHT22;21290;50.158;8.658;2022-08-30T15:54:57;30.00;48.50
35111;DHT22;21290;50.158;8.658;2022-08-30T15:57:25;29.90;49.10
35111;DHT22;21290;50.158;8.658;2022-08-30T15:59:52;29.90;49.20
35111;DHT22;21290;50.158;8.658;2022-08-30T16:02:22;29.90;48.70
35111;DHT22;21290;50.158;8.658;2022-08-30T16:04:53;29.80;49.80
35111;DHT22;21290;50.158;8.658;2022-08-30T16:07:19;29.70;49.10
35111;DHT22;21290;50.158;8.658;2022-08-30T16:09:46;29.50;49.60
35111;DHT22;21290;50.158;8.658;2022-08-30T16:12:13;29.40;49.10
35111;DHT22;21290;50.158;8.658;2022-08-30T16:14:49;29.20;49.30
35111;DHT22;21290;50.158;8.658;2022-08-30T16:17:16;29.10;49.30
35111;DHT22;21290;50.158;8.658;2022-08-30T16:19:43;29.00;50.00
35111;DHT22;21290;50.158;8.658;2022-08-30T16:22:10;28.80;49.60
35111;DHT22;21290;50.158;8.658;2022-08-30T16:24:37;28.70;49.50
35111;DHT22;21290;50.158;8.658;2022-08-30T16:27:04;28.60;49.30
35111;DHT22;21290;50.158;8.658;2022-08-30T16:29:34;28.40;49.90
35111;DHT22;21290;50.158;8.658;2022-08-30T16:32:00;28.30;50.00
35111;DHT22;21290;50.158;8.658;2022-08-30T16:34:27;28.20;50.40
35111;DHT22;21290;50.158;8.658;2022-08-30T16:36:54;28.10;50.60
35111;DHT22;21290;50.158;8.658;2022-08-30T16:39:20;28.10;50.60
35111;DHT22;21290;50.158;8.658;2022-08-30T16:41:47;28.00;50.40
35111;DHT22;21290;50.158;8.658;2022-08-30T16:44:15;28.10;50.60
35111;DHT22;21290;50.158;8.658;2022-08-30T16:46:44;28.00;50.50
35111;DHT22;21290;50.158;8.658;2022-08-30T16:49:19;28.10;51.60
35111;DHT22;21290;50.158;8.658;2022-08-30T16:51:49;28.00;51.10
35111;DHT22;21290;50.158;8.658;2022-08-30T16:54:16;28.10;51.10
35111;DHT22;21290;50.158;8.658;2022-08-30T16:56:43;28.10;51.80
35111;DHT22;21290;50.158;8.658;2022-08-30T16:59:10;28.10;51.70
35111;DHT22;21290;50.158;8.658;2022-08-30T17:01:38;28.10;51.70
35111;DHT22;21290;50.158;8.658;2022-08-30T17:04:08;28.10;51.20
35111;DHT22;21290;50.158;8.658;2022-08-30T17:06:35;28.10;51.70
35111;DHT22;21290;50.158;8.658;2022-08-30T17:09:04;28.10;51.70
35111;DHT22;21290;50.158;8.658;2022-08-30T17:11:31;28.10;51.60
35111;DHT22;21290;50.158;8.658;2022-08-30T17:13:58;28.00;51.70
35111;DHT22;21290;50.158;8.658;2022-08-30T17:16:27;28.00;51.40
35111;DHT22;21290;50.158;8.658;2022-08-30T17:18:56;28.00;52.00
35111;DHT22;21290;50.158;8.658;2022-08-30T17:21:30;27.90;51.70